Time;durP1;ratioP1;P1;durP2;ratioP2;P2;SDS_P1;SDS_P2;PMS_P1;PMS_P2;Temp;Humidity;BMP_temperature;BMP_pressure;BME280_temperature;BME280_humidity;BME280_pressure;Samples;Min_cycle;Max_cycle;Signal;HPM_P1;HPM_P2
2023/06/11 00:01:14;;;;;;;4.22;1.88;;;;;;;19.49;72.19;100396.06;10209977;28;96657;-81
2023/06/11 00:06:20;;;;;;;3.22;2.38;;;;;;;19.17;73.19;100385.03;10234935;22;97055;-81
2023/06/11 00:11:23;;;;;;;3.20;1.83;;;;;;;19.07;73.43;100389.34;10272377;28;96740;-81
2023/06/11 00:16:32;;;;;;;3.85;1.90;;;;;;;19.21;73.24;100388.34;10251186;28;96906;-81
2023/06/11 00:21:43;;;;;;;5.28;1.90;;;;;;;19.38;72.57;100382.63;10250568;28;97399;-81
2023/06/11 00:26:47;;;;;;;3.53;2.10;;;;;;;19.47;72.19;100383.78;10268077;28;96877;-81
2023/06/11 00:31:51;;;;;;;5.13;1.98;;;;;;;19.43;72.29;100375.16;10290288;28;97935;-81
2023/06/11 00:36:54;;;;;;;5.97;2.08;;;;;;;19.15;72.98;100372.78;10259952;28;97877;-82
2023/06/11 00:41:59;;;;;;;3.78;2.20;;;;;;;19.19;73.06;100368.94;10252624;28;96718;-81
2023/06/11 00:47:04;;;;;;;3.72;1.98;;;;;;;19.15;72.93;100372.78;10290423;28;96704;-81
2023/06/11 00:52:13;;;;;;;3.63;1.75;;;;;;;18.91;73.66;100369.22;10289176;28;96999;-81
2023/06/11 00:57:17;;;;;;;4.47;1.73;;;;;;;18.64;74.51;100365.88;10290418;28;96741;-81
2023/06/11 01:02:30;;;;;;;2.72;2.00;;;;;;;18.46;74.85;100368.00;10261425;28;97009;-81
2023/06/11 01:07:36;;;;;;;2.75;1.70;;;;;;;18.65;74.63;100371.06;10248060;28;96975;-81
2023/06/11 01:12:39;;;;;;;4.60;2.20;;;;;;;18.90;73.53;100356.84;10248903;28;96882;-81
2023/06/11 01:17:48;;;;;;;3.78;1.92;;;;;;;18.61;74.41;100352.75;10266202;28;96849;-81
2023/06/11 01:23:17;;;;;;;3.53;1.80;;;;;;;18.42;74.58;100361.13;10289328;28;96788;-81
2023/06/11 01:28:24;;;;;;;3.65;1.77;;;;;;;18.50;74.34;100357.97;10289771;28;96708;-81
2023/06/11 01:33:27;;;;;;;3.90;2.10;;;;;;;18.40;74.70;100362.22;10288069;28;96659;-81
2023/06/11 01:38:34;;;;;;;2.55;1.60;;;;;;;18.25;75.02;100365.97;10288764;28;97379;-81
2023/06/11 01:43:39;;;;;;;5.15;2.10;;;;;;;18.49;74.63;100361.63;10247317;28;96818;-81
2023/06/11 01:49:00;;;;;;;2.70;2.00;;;;;;;18.70;73.69;100366.28;10250387;28;96797;-81
2023/06/11 01:54:03;;;;;;;3.90;1.90;;;;;;;18.47;74.34;100361.69;10290984;28;97482;-81
2023/06/11 01:59:08;;;;;;;2.65;1.83;;;;;;;18.44;74.37;100366.34;10292820;28;97809;-81
2023/06/11 02:04:11;;;;;;;;;;;;;;;18.39;74.88;100365.84;10214700;28;97496;-81
2023/06/11 02:09:14;;;;;;;4.00;2.10;;;;;;;18.46;74.14;100375.09;10237177;28;96688;-81
2023/06/11 02:14:19;;;;;;;4.53;1.90;;;;;;;18.48;74.01;100362.56;10254188;28;96620;-81
2023/06/11 02:19:22;;;;;;;;;;;;;;;18.62;74.30;100360.63;10255566;28;97978;-82
2023/06/11 02:24:26;;;;;;;3.92;2.00;;;;;;;18.66;73.18;100363.94;10254643;28;98338;-81
2023/06/11 02:29:30;;;;;;;1.80;1.45;;;;;;;18.62;73.29;100365.97;10254191;28;96692;-81
2023/06/11 02:34:33;;;;;;;;;;;;;;;18.54;73.90;100362.97;10252945;28;97068;-81
2023/06/11 02:39:36;;;;;;;3.63;1.80;;;;;;;18.39;73.78;100360.50;10254131;28;97825;-81
2023/06/11 02:44:41;;;;;;;2.30;1.75;;;;;;;18.30;73.79;100353.19;10287016;28;97105;-81
2023/06/11 02:49:45;;;;;;;3.38;1.75;;;;;;;18.24;74.06;100357.13;10281274;28;97405;-81
2023/06/11 02:54:48;;;;;;;3.63;1.70;;;;;;;18.12;74.14;100357.97;10212911;28;97069;-81
2023/06/11 02:59:52;;;;;;;3.42;1.52;;;;;;;18.16;73.96;100348.78;10231678;28;96722;-81
2023/06/11 03:04:55;;;;;;;;;;;;;;;18.04;74.54;100347.81;10253075;28;97658;-81
2023/06/11 03:09:59;;;;;;;2.75;1.63;;;;;;;17.92;74.41;100343.34;10253909;28;98087;-81
2023/06/11 03:15:04;;;;;;;3.47;1.83;;;;;;;17.78;74.91;100338.09;10253259;28;97440;-81
2023/06/11 03:20:08;;;;;;;3.83;2.00;;;;;;;17.69;75.46;100329.91;10252747;28;96677;-81
2023/06/11 03:25:11;;;;;;;2.47;1.50;;;;;;;17.60;75.80;100336.69;10251306;28;97173;-81
2023/06/11 03:30:16;;;;;;;2.20;1.60;;;;;;;17.48;75.90;100336.66;10252407;28;96745;-81
2023/06/11 03:35:19;;;;;;;;;;;;;;;17.43;76.08;100328.91;10251323;28;97407;-81
2023/06/11 03:40:23;;;;;;;3.90;1.52;;;;;;;17.32;76.29;100339.44;10240323;28;97711;-81
2023/06/11 03:45:27;;;;;;;3.15;1.75;;;;;;;17.27;76.04;100330.03;10211105;28;96710;-81
2023/06/11 03:50:30;;;;;;;;;;;;;;;17.24;76.33;100327.59;10229057;28;97591;-81
2023/06/11 03:55:34;;;;;;;5.43;1.52;;;;;;;17.24;75.65;100328.47;10251660;28;97377;-81
2023/06/11 04:00:38;;;;;;;2.33;1.40;;;;;;;17.20;75.60;100318.09;10252208;28;97680;-81
2023/06/11 04:05:42;;;;;;;;;;;;;;;17.16;75.69;100324.56;10251666;28;97920;-81
2023/06/11 04:10:45;;;;;;;4.65;1.70;;;;;;;17.16;75.06;100324.56;10250024;28;97214;-81
2023/06/11 04:15:50;;;;;;;3.42;1.80;;;;;;;17.11;75.81;100324.00;10249744;28;96683;-81
2023/06/11 04:20:53;;;;;;;;;;;;;;;17.11;75.73;100319.56;10250720;28;96704;-81
2023/06/11 04:25:57;;;;;;;3.72;1.70;;;;;;;17.15;75.04;100328.19;10250992;28;97310;-81
2023/06/11 04:31:02;;;;;;;3.17;1.92;;;;;;;17.13;75.40;100325.63;10250298;28;96621;-81
2023/06/11 04:36:07;;;;;;;2.75;1.60;;;;;;;16.97;76.00;100336.41;10249814;28;96765;-81
2023/06/11 04:41:11;;;;;;;2.38;1.67;;;;;;;16.98;76.05;100331.97;10250339;28;96723;-81
2023/06/11 04:46:16;;;;;;;3.00;1.90;;;;;;;16.86;76.53;100328.25;10249428;28;96789;-81
2023/06/11 04:51:20;;;;;;;4.00;1.58;;;;;;;16.80;77.05;100330.47;10250573;28;97916;-81
2023/06/11 04:56:23;;;;;;;2.55;2.00;;;;;;;16.76;76.98;100328.94;10249568;28;97404;-81
2023/06/11 05:01:32;;;;;;;5.45;1.90;;;;;;;16.79;76.91;100344.72;10250009;28;96999;-81
2023/06/11 05:06:35;;;;;;;2.78;1.70;;;;;;;16.67;77.70;100342.84;10247455;28;96841;-81
2023/06/11 05:11:39;;;;;;;4.43;2.00;;;;;;;16.68;77.04;100336.56;10249151;28;97881;-81
2023/06/11 05:16:45;;;;;;;3.85;2.03;;;;;;;16.71;76.86;100337.22;10249354;28;96645;-81
2023/06/11 05:21:48;;;;;;;5.38;2.45;;;;;;;16.66;77.51;100349.94;10248837;28;96730;-81
2023/06/11 05:26:55;;;;;;;4.90;1.88;;;;;;;16.70;77.29;100345.28;10248604;28;97051;-81
2023/06/11 05:32:00;;;;;;;3.63;1.98;;;;;;;16.63;77.39;100354.59;10249164;28;97691;-81
2023/06/11 05:37:04;;;;;;;3.00;1.98;;;;;;;16.67;78.30;100350.81;10248119;28;96919;-81
2023/06/11 05:42:08;;;;;;;3.45;1.90;;;;;;;16.65;78.56;100355.34;10249047;28;96720;-81
2023/06/11 05:47:13;;;;;;;3.60;1.90;;;;;;;16.58;78.46;100349.59;10248180;28;97133;-81
2023/06/11 05:52:16;;;;;;;;;;;;;;;16.58;78.91;100348.72;10249686;28;96943;-81
2023/06/11 05:57:20;;;;;;;2.53;1.75;;;;;;;16.60;78.06;100349.47;10247532;28;97810;-81
2023/06/11 06:02:25;;;;;;;5.43;1.88;;;;;;;16.66;78.57;100349.94;10247929;28;97756;-81
2023/06/11 06:07:33;;;;;;;2.78;2.00;;;;;;;16.90;77.97;100353.69;10247448;28;97445;-81
2023/06/11 06:12:37;;;;;;;4.88;2.25;;;;;;;17.11;77.58;100346.16;10247664;28;97676;-81
2023/06/11 06:17:42;;;;;;;2.92;2.20;;;;;;;17.33;77.66;100345.63;10246800;28;96745;-81
2023/06/11 06:22:45;;;;;;;;;;;;;;;17.40;77.21;100339.78;10248521;28;96909;-81
2023/06/11 06:27:48;;;;;;;2.30;1.75;;;;;;;17.46;77.27;100336.75;10247326;28;96866;-81
2023/06/11 06:32:53;;;;;;;5.75;2.17;;;;;;;17.71;76.36;100336.81;10247775;28;96854;-81
2023/06/11 06:38:00;;;;;;;4.28;2.00;;;;;;;17.97;75.73;100338.53;10250966;28;96830;-81
2023/06/11 06:43:04;;;;;;;3.45;1.80;;;;;;;17.91;75.85;100327.47;10254342;28;97326;-81
2023/06/11 06:48:08;;;;;;;2.65;1.58;;;;;;;18.04;75.50;100329.19;10252612;28;96981;-81
2023/06/11 06:53:12;;;;;;;2.80;1.80;;;;;;;18.24;75.11;100338.47;10253442;28;96839;-81
2023/06/11 06:58:15;;;;;;;2.40;1.77;;;;;;;18.23;75.30;100327.91;10253894;28;96739;-81
2023/06/11 07:03:21;;;;;;;3.63;2.05;;;;;;;18.36;75.04;100329.63;10252998;28;97631;-81
2023/06/11 07:08:24;;;;;;;2.50;1.85;;;;;;;18.38;75.02;100335.69;10252710;28;97981;-81
2023/06/11 07:13:27;;;;;;;4.60;1.73;;;;;;;18.57;74.95;100335.28;10253235;28;96742;-81
2023/06/11 07:18:32;;;;;;;4.00;1.80;;;;;;;18.72;74.58;100343.03;10252606;28;96773;-82
2023/06/11 07:23:36;;;;;;;3.33;1.80;;;;;;;18.78;74.38;100341.75;10253799;28;96666;-81
2023/06/11 07:28:40;;;;;;;3.45;2.00;;;;;;;19.02;74.01;100353.31;10252065;28;98049;-82
2023/06/11 07:33:45;;;;;;;3.00;2.03;;;;;;;19.11;73.59;100350.81;10252472;28;97367;-82
2023/06/11 07:38:48;;;;;;;2.88;1.80;;;;;;;19.05;73.99;100345.94;10251036;28;96797;-82
2023/06/11 07:43:51;;;;;;;5.03;2.00;;;;;;;19.13;73.74;100345.34;10251907;28;96706;-82
2023/06/11 07:49:13;;;;;;;3.75;1.98;;;;;;;19.32;73.38;100353.72;10251345;28;96724;-82
2023/06/11 07:54:17;;;;;;;3.15;1.90;;;;;;;19.39;73.01;100343.44;10251801;28;97223;-82
2023/06/11 07:59:21;;;;;;;4.88;2.08;;;;;;;19.47;72.42;100346.44;10251329;28;96740;-82
2023/06/11 08:04:26;;;;;;;3.05;2.00;;;;;;;19.68;71.67;100352.84;10251402;28;97166;-82
2023/06/11 08:09:29;;;;;;;3.15;1.75;;;;;;;19.98;71.09;100348.66;10250984;28;96876;-82
2023/06/11 08:14:33;;;;;;;3.30;1.60;;;;;;;20.47;70.39;100352.91;10251749;28;96777;-82
2023/06/11 08:19:38;;;;;;;2.40;1.70;;;;;;;20.68;69.62;100344.06;10250777;28;96692;-82
2023/06/11 08:24:41;;;;;;;4.03;1.98;;;;;;;20.79;69.07;100338.69;10250558;28;97519;-82
2023/06/11 08:29:44;;;;;;;3.25;1.65;;;;;;;21.17;68.48;100340.97;10249671;28;97679;-82
2023/06/11 08:34:49;;;;;;;2.60;1.60;;;;;;;21.63;67.69;100343.38;10249911;28;96623;-82
2023/06/11 08:39:52;;;;;;;2.97;1.65;;;;;;;21.81;67.33;100334.66;10250622;28;96725;-82
2023/06/11 08:44:56;;;;;;;4.43;1.60;;;;;;;22.11;66.41;100336.56;10249611;28;96584;-82
2023/06/11 08:50:02;;;;;;;2.47;1.70;;;;;;;22.35;66.30;100334.47;10249809;28;97785;-82
2023/06/11 08:55:06;;;;;;;2.60;1.60;;;;;;;22.26;66.09;100340.63;10250341;28;96862;-82
2023/06/11 09:00:12;;;;;;;2.15;1.48;;;;;;;22.17;66.05;100346.78;10248970;28;96804;-82
2023/06/11 09:05:17;;;;;;;4.93;2.30;;;;;;;22.40;65.80;100340.28;10249506;28;96855;-82
2023/06/11 09:10:21;;;;;;;3.85;1.80;;;;;;;22.67;64.85;100342.38;10248758;28;96891;-81
2023/06/11 09:15:25;;;;;;;2.60;1.67;;;;;;;22.69;63.77;100332.34;10249988;28;98014;-81
2023/06/11 09:20:32;;;;;;;2.75;1.60;;;;;;;22.96;62.99;100332.59;10247979;28;96743;-82
2023/06/11 09:25:39;;;;;;;2.88;1.83;;;;;;;23.13;62.16;100327.44;10248612;28;96688;-82
2023/06/11 09:30:42;;;;;;;3.70;1.60;;;;;;;23.38;61.59;100326.06;10249158;28;97183;-82
2023/06/11 09:35:47;;;;;;;3.57;1.80;;;;;;;23.38;61.78;100321.53;10246988;28;98153;-82
2023/06/11 09:40:51;;;;;;;2.90;1.73;;;;;;;23.49;61.37;100329.44;10248332;28;97239;-82
2023/06/11 09:45:55;;;;;;;3.35;1.40;;;;;;;23.72;60.38;100323.84;10250749;28;98038;-82
2023/06/11 09:51:02;;;;;;;3.58;1.80;;;;;;;23.87;60.28;100317.91;10289130;28;97713;-82
2023/06/11 09:56:07;;;;;;;2.90;1.70;;;;;;;24.08;59.76;100328.47;10289245;28;96806;-82
2023/06/11 10:01:14;;;;;;;3.38;1.90;;;;;;;24.28;60.20;100316.69;10288617;28;96686;-81
2023/06/11 10:06:25;;;;;;;3.15;1.75;;;;;;;24.23;59.18;100313.56;10287027;28;96800;-81
2023/06/11 10:11:38;;;;;;;3.05;1.73;;;;;;;24.15;58.63;100319.66;10290814;28;96552;-81
2023/06/11 10:16:48;;;;;;;2.30;1.15;;;;;;;24.38;57.96;100317.50;10294970;28;96753;-81
2023/06/11 10:21:55;;;;;;;2.45;1.58;;;;;;;24.37;54.76;100318.53;10294029;28;96797;-81
2023/06/11 10:27:07;;;;;;;2.67;1.20;;;;;;;24.33;53.81;100317.97;10294676;28;96801;-82
2023/06/11 10:32:27;;;;;;;2.30;1.25;;;;;;;24.65;54.66;100313.00;10292483;28;96562;-81
2023/06/11 10:37:35;;;;;;;1.97;1.40;;;;;;;24.59;54.58;100319.00;10285579;28;96946;-81
2023/06/11 10:42:40;;;;;;;2.60;1.33;;;;;;;24.46;52.46;100321.16;10253621;28;96795;-81
2023/06/11 10:47:44;;;;;;;1.85;1.10;;;;;;;24.61;52.09;100319.72;10254599;28;97952;-81
2023/06/11 10:52:51;;;;;;;1.42;0.85;;;;;;;24.75;52.73;100324.59;10253366;28;96972;-81
2023/06/11 10:57:55;;;;;;;2.97;1.15;;;;;;;24.69;51.46;100329.72;10253600;28;96843;-82
2023/06/11 11:02:58;;;;;;;2.47;1.10;;;;;;;24.73;50.29;100331.97;10252031;28;96700;-82
2023/06/11 11:08:21;;;;;;;3.88;1.10;;;;;;;25.17;50.50;100322.28;10252507;28;97219;-82
2023/06/11 11:13:29;;;;;;;4.65;1.60;;;;;;;25.14;50.72;100319.88;10253063;28;96878;-81
2023/06/11 11:18:34;;;;;;;3.00;1.50;;;;;;;25.21;50.43;100310.19;10252929;28;96794;-81
2023/06/11 11:23:39;;;;;;;3.88;1.38;;;;;;;25.22;51.09;100306.50;10251949;28;97090;-82
2023/06/11 11:28:42;;;;;;;2.53;1.42;;;;;;;25.21;50.70;100295.88;10252920;28;96702;-81
2023/06/11 11:33:46;;;;;;;3.60;1.20;;;;;;;25.19;51.04;100308.66;10251857;28;97165;-81
2023/06/11 11:38:51;;;;;;;;;;;;;;;25.85;51.58;100313.53;10253141;28;96731;-81
2023/06/11 11:43:54;;;;;;;2.95;1.60;;;;;;;25.98;51.31;100305.03;10251502;28;96688;-81
2023/06/11 11:48:57;;;;;;;2.60;1.47;;;;;;;25.75;52.28;100306.53;10252309;28;97546;-81
2023/06/11 11:54:03;;;;;;;2.20;1.35;;;;;;;25.98;52.47;100299.63;10250349;28;96818;-81
2023/06/11 11:59:16;;;;;;;3.17;1.50;;;;;;;26.00;52.39;100302.19;10251464;28;96991;-81
2023/06/11 12:04:19;;;;;;;3.37;1.50;;;;;;;26.61;51.80;100306.47;10251053;28;96683;-81
2023/06/11 12:09:24;;;;;;;2.42;1.50;;;;;;;26.53;51.96;100303.72;10250786;28;96758;-81
2023/06/11 12:14:28;;;;;;;4.15;1.65;;;;;;;26.39;51.99;100308.88;10250782;28;96792;-81
2023/06/11 12:19:32;;;;;;;2.78;1.52;;;;;;;26.09;52.62;100312.84;10251261;28;96927;-81
2023/06/11 12:24:37;;;;;;;3.05;1.58;;;;;;;25.37;53.43;100306.81;10250747;28;97307;-81
2023/06/11 12:29:41;;;;;;;3.70;1.65;;;;;;;25.74;52.26;100311.06;10251525;28;98003;-81
2023/06/11 12:34:44;;;;;;;3.22;1.48;;;;;;;26.05;51.97;100314.19;10253608;22;98500;-81
2023/06/11 12:39:49;;;;;;;2.00;1.40;;;;;;;26.16;51.66;100303.13;10212617;28;96716;-81
2023/06/11 12:44:54;;;;;;;2.70;1.63;;;;;;;26.52;51.03;100304.75;10208439;28;96726;-80
2023/06/11 12:49:57;;;;;;;2.78;1.55;;;;;;;26.43;50.13;100299.44;10209535;28;96761;-81
2023/06/11 12:55:02;;;;;;;4.00;1.67;;;;;;;26.76;50.35;100294.06;10210074;28;97571;-81
2023/06/11 13:00:06;;;;;;;2.78;1.73;;;;;;;26.30;49.46;100286.34;10209173;28;96667;-81
2023/06/11 13:05:10;;;;;;;3.50;1.75;;;;;;;26.04;51.00;100277.41;10208832;28;97025;-81
2023/06/11 13:10:15;;;;;;;2.95;1.48;;;;;;;26.89;49.87;100286.34;10208964;28;96822;-81
2023/06/11 13:15:18;;;;;;;4.15;1.65;;;;;;;26.28;50.49;100279.44;10208811;28;96627;-81
2023/06/11 13:20:22;;;;;;;2.08;1.58;;;;;;;26.53;49.97;100276.75;10209397;28;96793;-81
2023/06/11 13:25:27;;;;;;;3.75;1.77;;;;;;;26.90;49.91;100281.78;10208849;28;97071;-81
2023/06/11 13:30:30;;;;;;;2.40;1.40;;;;;;;26.30;50.82;100289.06;10208583;28;97301;-81
2023/06/11 13:35:34;;;;;;;3.40;1.58;;;;;;;26.26;51.21;100276.91;10206582;28;96907;-81
2023/06/11 13:40:38;;;;;;;3.80;1.52;;;;;;;26.05;50.97;100281.81;10208402;28;96665;-81
2023/06/11 13:45:44;;;;;;;2.60;1.38;;;;;;;26.09;50.84;100285.88;10212425;28;96756;-81
2023/06/11 13:50:50;;;;;;;3.00;1.75;;;;;;;25.76;51.28;100276.72;10215136;28;96774;-81
2023/06/11 13:55:55;;;;;;;2.00;1.50;;;;;;;25.96;52.11;100268.44;10214733;28;96797;-81
2023/06/11 14:00:59;;;;;;;2.83;1.67;;;;;;;26.56;50.90;100273.72;10215281;28;96938;-81
2023/06/11 14:06:03;;;;;;;2.97;1.75;;;;;;;26.07;51.91;100271.72;10214393;28;97053;-80
2023/06/11 14:11:13;;;;;;;2.33;1.60;;;;;;;25.56;52.66;100269.78;10215571;28;97712;-80
2023/06/11 14:16:16;;;;;;;3.80;1.55;;;;;;;25.73;52.29;100276.16;10214239;28;96823;-81
2023/06/11 14:21:20;;;;;;;3.10;1.70;;;;;;;26.10;51.93;100271.41;10214528;28;96868;-81
2023/06/11 14:26:26;;;;;;;2.72;1.20;;;;;;;25.65;52.75;100266.16;10212735;28;96683;-80
2023/06/11 14:31:29;;;;;;;2.53;1.30;;;;;;;25.26;53.43;100270.16;10213864;28;96663;-80
2023/06/11 14:36:32;;;;;;;3.27;1.37;;;;;;;24.87;53.65;100282.19;10208772;28;96978;-80
2023/06/11 14:41:37;;;;;;;2.07;1.60;;;;;;;24.69;54.55;100283.97;10213709;28;97999;-81
2023/06/11 14:46:40;;;;;;;2.17;1.75;;;;;;;24.35;56.31;100293.59;10213347;28;97560;-80
2023/06/11 14:51:44;;;;;;;2.97;1.83;;;;;;;24.66;54.96;100292.34;10213877;28;96961;-80
2023/06/11 14:56:49;;;;;;;2.20;1.47;;;;;;;25.18;53.55;100288.09;10212141;28;96634;-81
2023/06/11 15:01:52;;;;;;;2.25;1.23;;;;;;;25.80;51.84;100288.88;10213756;28;96726;-81
2023/06/11 15:06:56;;;;;;;3.90;1.73;;;;;;;25.77;51.87;100294.59;10212708;28;97732;-81
2023/06/11 15:12:02;;;;;;;1.63;1.25;;;;;;;25.44;51.87;100292.59;10212950;28;96675;-80
2023/06/11 15:17:06;;;;;;;2.42;1.50;;;;;;;25.54;52.01;100295.19;10211291;28;96801;-81
2023/06/11 15:22:09;;;;;;;2.13;1.30;;;;;;;26.14;50.51;100297.06;10212313;28;96921;-80
2023/06/11 15:27:17;;;;;;;3.05;1.50;;;;;;;26.49;50.22;100301.53;10212630;28;97795;-80
2023/06/11 15:32:20;;;;;;;2.08;1.40;;;;;;;26.11;50.64;100304.63;10212218;28;97763;-81
2023/06/11 15:37:24;;;;;;;1.95;1.33;;;;;;;26.41;49.66;100306.84;10195151;28;97307;-81
2023/06/11 15:42:28;;;;;;;2.67;1.35;;;;;;;26.56;49.05;100300.69;10211763;28;97801;-81
2023/06/11 15:47:32;;;;;;;4.03;1.33;;;;;;;25.89;50.16;100293.34;10211715;28;96818;-81
2023/06/11 15:52:36;;;;;;;2.38;1.35;;;;;;;26.07;50.44;100298.69;10211844;28;96767;-81
2023/06/11 15:57:41;;;;;;;2.78;1.40;;;;;;;26.27;49.65;100300.16;10211104;28;96741;-81
2023/06/11 16:02:44;;;;;;;1.80;1.30;;;;;;;26.18;49.48;100282.22;10211679;28;96710;-80
2023/06/11 16:07:47;;;;;;;2.30;1.50;;;;;;;26.26;49.04;100282.31;10209772;28;97966;-81
2023/06/11 16:12:52;;;;;;;2.75;1.40;;;;;;;26.03;50.09;100285.66;10210601;28;96790;-81
2023/06/11 16:17:55;;;;;;;2.58;1.42;;;;;;;26.12;49.85;100274.78;10210859;28;97239;-80
2023/06/11 16:23:00;;;;;;;2.05;1.55;;;;;;;25.81;50.18;100279.78;10210424;28;96772;-81
2023/06/11 16:28:22;;;;;;;2.75;1.40;;;;;;;26.02;50.27;100278.59;10210325;28;96742;-80
2023/06/11 16:33:43;;;;;;;2.67;1.40;;;;;;;26.25;50.87;100275.19;10209303;28;97837;-80
2023/06/11 16:39:00;;;;;;;2.33;1.15;;;;;;;26.28;50.73;100269.47;10170084;28;96800;-80
2023/06/11 16:44:25;;;;;;;2.00;1.15;;;;;;;26.27;50.59;100269.63;10170234;28;97027;-80
2023/06/11 16:49:28;;;;;;;1.88;1.27;;;;;;;25.61;51.64;100272.00;10169931;28;96663;-80
2023/06/11 16:54:32;;;;;;;2.22;1.20;;;;;;;25.76;52.01;100265.94;10202402;28;96822;-80
2023/06/11 16:59:36;;;;;;;2.50;1.58;;;;;;;25.41;52.68;100274.03;10208349;28;97097;-80
2023/06/11 17:04:40;;;;;;;3.17;1.30;;;;;;;25.53;52.40;100271.94;10208905;28;96643;-81
2023/06/11 17:09:43;;;;;;;2.33;1.23;;;;;;;25.04;53.86;100265.22;10209566;28;97159;-80
2023/06/11 17:14:48;;;;;;;3.25;1.15;;;;;;;24.99;54.35;100277.41;10208531;28;96891;-80
2023/06/11 17:19:54;;;;;;;2.10;1.30;;;;;;;24.60;55.06;100274.13;10208137;28;96746;-81
2023/06/11 17:24:58;;;;;;;2.17;1.23;;;;;;;24.12;56.63;100285.00;10209313;28;96813;-80
2023/06/11 17:30:03;;;;;;;1.92;1.40;;;;;;;24.32;55.71;100289.38;10208430;28;97946;-80
2023/06/11 17:35:07;;;;;;;3.25;1.13;;;;;;;24.37;55.91;100283.56;10208174;28;96839;-80
2023/06/11 17:40:11;;;;;;;;;;;;;;;24.35;56.07;100281.00;10208571;28;96569;-80
2023/06/11 17:45:20;;;;;;;1.25;1.00;;;;;;;24.42;55.86;100283.94;10237815;28;96815;-80
2023/06/11 17:50:24;;;;;;;2.40;1.20;;;;;;;24.50;55.32;100290.28;10247396;28;96757;-80
2023/06/11 17:55:44;;;;;;;2.88;1.30;;;;;;;24.35;55.06;100283.69;10241527;28;96695;-80
2023/06/11 18:00:53;;;;;;;2.30;1.38;;;;;;;24.22;55.11;100285.00;10247386;28;96623;-80
2023/06/11 18:05:57;;;;;;;3.95;1.35;;;;;;;24.32;55.11;100294.75;10247325;28;97006;-80
2023/06/11 18:11:00;;;;;;;2.37;1.30;;;;;;;24.21;55.08;100296.72;10247511;28;96731;-80
2023/06/11 18:16:05;;;;;;;2.40;1.20;;;;;;;23.99;55.33;100299.75;10246850;28;96890;-80
2023/06/11 18:21:10;;;;;;;2.15;1.17;;;;;;;24.02;55.09;100299.47;10247528;28;96639;-80
2023/06/11 18:26:13;;;;;;;1.60;1.00;;;;;;;23.79;55.09;100309.69;10248139;28;96756;-80
2023/06/11 18:31:18;;;;;;;1.95;1.23;;;;;;;23.84;54.82;100314.66;10249067;28;97234;-80
2023/06/11 18:36:21;;;;;;;2.22;0.93;;;;;;;23.74;55.28;100322.69;10221588;28;97563;-80
2023/06/11 18:41:24;;;;;;;2.00;1.10;;;;;;;23.61;55.15;100322.97;10212671;28;96940;-80
2023/06/11 18:46:33;;;;;;;2.20;1.10;;;;;;;23.59;55.17;100327.69;10213182;28;96601;-80
2023/06/11 18:51:41;;;;;;;3.47;1.30;;;;;;;23.48;54.99;100340.34;10213505;28;96813;-80
2023/06/11 18:56:45;;;;;;;2.50;1.50;;;;;;;23.44;55.15;100349.69;10213091;28;97042;-80
2023/06/11 19:01:49;;;;;;;3.05;1.17;;;;;;;23.33;55.12;100334.56;10213285;28;96708;-80
2023/06/11 19:06:53;;;;;;;2.28;1.10;;;;;;;23.36;55.17;100338.78;10213117;28;96898;-79
2023/06/11 19:11:57;;;;;;;2.42;1.05;;;;;;;23.18;55.64;100332.41;10212997;28;97502;-79
2023/06/11 19:17:02;;;;;;;4.30;1.20;;;;;;;23.14;56.06;100336.34;10213161;28;96694;-80
2023/06/11 19:22:06;;;;;;;1.92;1.00;;;;;;;23.06;56.47;100331.66;10212446;28;96619;-80
2023/06/11 19:27:10;;;;;;;2.72;1.38;;;;;;;22.93;56.48;100332.88;10212635;28;96740;-80
2023/06/11 19:32:14;;;;;;;1.70;1.02;;;;;;;22.75;56.56;100339.88;10211192;28;96844;-79
2023/06/11 19:37:18;;;;;;;1.98;1.00;;;;;;;22.69;56.53;100343.94;10211094;28;98826;-80
2023/06/11 19:42:21;;;;;;;3.15;1.30;;;;;;;22.59;56.89;100349.25;10225412;28;97882;-80
2023/06/11 19:47:26;;;;;;;3.40;1.00;;;;;;;22.58;57.13;100350.25;10251887;28;96894;-79
2023/06/11 19:52:29;;;;;;;2.88;1.33;;;;;;;22.55;57.33;100347.84;10223952;28;97062;-80
2023/06/11 19:57:33;;;;;;;3.90;1.30;;;;;;;22.59;57.59;100356.47;10211221;28;96928;-80
2023/06/11 20:02:38;;;;;;;3.17;1.30;;;;;;;22.55;58.14;100360.41;10182707;28;97505;-80
2023/06/11 20:07:41;;;;;;;2.92;1.20;;;;;;;22.53;58.17;100365.91;10211085;28;97871;-80
2023/06/11 20:12:44;;;;;;;2.38;0.93;;;;;;;22.28;59.25;100362.78;10210694;28;96744;-80
2023/06/11 20:17:49;;;;;;;2.00;1.10;;;;;;;22.14;59.87;100358.59;10211447;28;98160;-80
2023/06/11 20:22:53;;;;;;;3.25;1.52;;;;;;;21.95;60.74;100361.09;10209268;28;96687;-80
2023/06/11 20:27:56;;;;;;;2.40;1.10;;;;;;;21.91;61.05;100366.88;10210155;28;96718;-80
2023/06/11 20:33:01;;;;;;;1.30;1.10;;;;;;;21.81;61.48;100372.16;10221461;28;96824;-80
2023/06/11 20:38:04;;;;;;;4.57;1.55;;;;;;;21.71;61.98;100373.88;10250064;28;96789;-80
2023/06/11 20:43:08;;;;;;;3.10;1.30;;;;;;;21.67;62.05;100369.78;10250136;28;97889;-80
2023/06/11 20:48:12;;;;;;;2.03;1.20;;;;;;;21.50;62.73;100387.22;10249492;28;96833;-80
2023/06/11 20:53:16;;;;;;;3.17;1.60;;;;;;;21.48;62.93;100386.50;10210876;28;96884;-80
2023/06/11 20:58:36;;;;;;;3.50;1.42;;;;;;;21.31;63.22;100392.41;10209860;28;96771;-80
2023/06/11 21:03:40;;;;;;;3.75;1.30;;;;;;;21.46;63.02;100392.97;10208958;28;96956;-80
2023/06/11 21:08:44;;;;;;;3.20;1.50;;;;;;;21.56;62.42;100393.91;10209851;28;96859;-80
2023/06/11 21:13:48;;;;;;;2.60;1.10;;;;;;;21.57;62.66;100410.84;10207758;28;97994;-80
2023/06/11 21:19:12;;;;;;;2.95;1.30;;;;;;;21.34;63.32;100402.00;10208618;28;96883;-80
2023/06/11 21:24:15;;;;;;;3.30;1.35;;;;;;;21.28;63.45;100414.06;10209137;28;96642;-80
2023/06/11 21:29:19;;;;;;;1.70;0.97;;;;;;;21.03;64.30;100418.81;10208786;28;96703;-80
2023/06/11 21:34:24;;;;;;;2.07;1.47;;;;;;;21.09;64.13;100415.63;10208259;28;97667;-79
2023/06/11 21:39:27;;;;;;;2.45;1.30;;;;;;;20.91;64.63;100423.31;10186619;28;98060;-80
2023/06/11 21:44:30;;;;;;;3.50;1.48;;;;;;;20.88;65.28;100423.56;10208085;28;96672;-79
2023/06/11 21:49:35;;;;;;;1.95;1.15;;;;;;;21.00;64.90;100421.75;10208846;28;96642;-80
2023/06/11 21:54:39;;;;;;;2.03;1.38;;;;;;;20.86;65.03;100427.34;10207924;28;96701;-80
2023/06/11 22:00:04;;;;;;;2.88;1.55;;;;;;;20.69;65.75;100436.66;10228655;28;96919;-80
2023/06/11 22:05:12;;;;;;;2.25;1.40;;;;;;;20.70;65.67;100432.19;10248401;28;97135;-79
2023/06/11 22:10:15;;;;;;;2.55;1.30;;;;;;;20.76;65.52;100421.84;10255117;28;96909;-80
2023/06/11 22:15:19;;;;;;;3.33;1.40;;;;;;;20.54;66.26;100415.63;10254205;28;96956;-80
2023/06/11 22:20:25;;;;;;;2.38;1.33;;;;;;;20.63;65.94;100414.91;10255218;28;97903;-79
2023/06/11 22:25:28;;;;;;;2.03;1.33;;;;;;;20.35;66.58;100418.88;10254503;28;97343;-80
2023/06/11 22:30:31;;;;;;;2.38;1.33;;;;;;;20.25;66.71;100425.88;10254164;28;96777;-80
2023/06/11 22:35:55;;;;;;;1.60;1.30;;;;;;;20.17;66.76;100417.56;10173163;28;96984;-80
2023/06/11 22:40:59;;;;;;;3.95;1.58;;;;;;;20.26;66.37;100424.88;10186629;28;97306;-80
2023/06/11 22:46:02;;;;;;;2.78;1.38;;;;;;;20.29;66.42;100432.66;10213371;28;97825;-79
2023/06/11 22:51:09;;;;;;;2.67;1.40;;;;;;;20.20;66.87;100433.41;10241632;28;96766;-80
2023/06/11 22:56:13;;;;;;;1.88;1.20;;;;;;;20.40;66.80;100416.69;10250044;28;96928;-79
2023/06/11 23:01:17;;;;;;;2.25;1.48;;;;;;;20.39;66.82;100418.50;10212976;28;97116;-80
2023/06/11 23:06:22;;;;;;;2.55;1.42;;;;;;;20.39;66.85;100420.34;10226544;28;96799;-80
2023/06/11 23:11:26;;;;;;;2.83;1.30;;;;;;;20.48;66.79;100416.94;10253151;28;96615;-80
2023/06/11 23:16:30;;;;;;;2.65;1.45;;;;;;;20.35;66.89;100419.75;10252010;28;96735;-80
2023/06/11 23:21:37;;;;;;;2.88;1.77;;;;;;;20.25;66.72;100421.34;10253233;28;96819;-80
2023/06/11 23:26:43;;;;;;;2.13;1.30;;;;;;;20.26;67.12;100415.06;10171983;28;96759;-80